sensor_id;sensor_type;location;lat;lon;timestamp;P1;durP1;ratioP1;P2;durP2;ratioP2
17199;SDS011;8716;52.268;20.968;2023-12-20T00:01:12;12.00;;;10.13;;
17199;SDS011;8716;52.268;20.968;2023-12-20T00:03:41;8.77;;;8.27;;
17199;SDS011;8716;52.268;20.968;2023-12-20T00:06:09;11.60;;;8.67;;
17199;SDS011;8716;52.268;20.968;2023-12-20T00:08:38;11.53;;;8.50;;
17199;SDS011;8716;52.268;20.968;2023-12-20T00:11:08;8.30;;;7.90;;
17199;SDS011;8716;52.268;20.968;2023-12-20T00:13:36;15.93;;;12.43;;
17199;SDS011;8716;52.268;20.968;2023-12-20T00:16:05;8.97;;;8.47;;
17199;SDS011;8716;52.268;20.968;2023-12-20T00:18:34;7.53;;;7.13;;
17199;SDS011;8716;52.268;20.968;2023-12-20T00:21:02;14.30;;;13.60;;
17199;SDS011;8716;52.268;20.968;2023-12-20T00:23:31;12.70;;;12.03;;
17199;SDS011;8716;52.268;20.968;2023-12-20T00:25:59;9.70;;;9.20;;
17199;SDS011;8716;52.268;20.968;2023-12-20T00:28:29;10.93;;;9.50;;
17199;SDS011;8716;52.268;20.968;2023-12-20T00:30:57;10.57;;;10.00;;
17199;SDS011;8716;52.268;20.968;2023-12-20T00:33:25;16.13;;;11.73;;
17199;SDS011;8716;52.268;20.968;2023-12-20T00:35:54;7.27;;;6.87;;
17199;SDS011;8716;52.268;20.968;2023-12-20T00:38:22;7.15;;;6.75;;
17199;SDS011;8716;52.268;20.968;2023-12-20T00:40:51;9.67;;;7.77;;
17199;SDS011;8716;52.268;20.968;2023-12-20T00:43:19;6.87;;;5.50;;
17199;SDS011;8716;52.268;20.968;2023-12-20T00:45:49;13.60;;;9.10;;
17199;SDS011;8716;52.268;20.968;2023-12-20T00:48:18;10.33;;;9.83;;
17199;SDS011;8716;52.268;20.968;2023-12-20T00:50:49;11.50;;;7.77;;
17199;SDS011;8716;52.268;20.968;2023-12-20T00:53:20;17.27;;;12.02;;
17199;SDS011;8716;52.268;20.968;2023-12-20T00:55:48;13.93;;;6.70;;
17199;SDS011;8716;52.268;20.968;2023-12-20T00:58:16;13.53;;;9.87;;
17199;SDS011;8716;52.268;20.968;2023-12-20T01:00:45;9.17;;;8.60;;
17199;SDS011;8716;52.268;20.968;2023-12-20T01:03:15;13.40;;;7.87;;
17199;SDS011;8716;52.268;20.968;2023-12-20T01:05:43;8.80;;;8.30;;
17199;SDS011;8716;52.268;20.968;2023-12-20T01:08:11;8.97;;;6.57;;
17199;SDS011;8716;52.268;20.968;2023-12-20T01:10:40;5.47;;;5.17;;
17199;SDS011;8716;52.268;20.968;2023-12-20T01:13:08;7.47;;;7.07;;
17199;SDS011;8716;52.268;20.968;2023-12-20T01:15:37;6.70;;;6.30;;
17199;SDS011;8716;52.268;20.968;2023-12-20T01:18:05;7.67;;;7.27;;
17199;SDS011;8716;52.268;20.968;2023-12-20T01:20:35;8.43;;;7.47;;
17199;SDS011;8716;52.268;20.968;2023-12-20T01:23:04;5.77;;;5.47;;
17199;SDS011;8716;52.268;20.968;2023-12-20T01:25:32;8.07;;;7.67;;
17199;SDS011;8716;52.268;20.968;2023-12-20T01:28:00;10.80;;;5.03;;
17199;SDS011;8716;52.268;20.968;2023-12-20T01:30:29;9.83;;;9.33;;
17199;SDS011;8716;52.268;20.968;2023-12-20T01:32:59;7.10;;;6.57;;
17199;SDS011;8716;52.268;20.968;2023-12-20T01:35:28;8.03;;;7.40;;
17199;SDS011;8716;52.268;20.968;2023-12-20T01:37:57;6.83;;;5.73;;
17199;SDS011;8716;52.268;20.968;2023-12-20T01:40:26;8.20;;;6.93;;
17199;SDS011;8716;52.268;20.968;2023-12-20T01:42:57;6.40;;;6.03;;
17199;SDS011;8716;52.268;20.968;2023-12-20T01:45:27;8.40;;;7.93;;
17199;SDS011;8716;52.268;20.968;2023-12-20T01:47:55;7.07;;;6.67;;
17199;SDS011;8716;52.268;20.968;2023-12-20T01:50:25;23.80;;;7.43;;
17199;SDS011;8716;52.268;20.968;2023-12-20T01:52:55;8.23;;;7.77;;
17199;SDS011;8716;52.268;20.968;2023-12-20T01:55:25;5.30;;;5.00;;
17199;SDS011;8716;52.268;20.968;2023-12-20T01:57:57;7.10;;;6.70;;
17199;SDS011;8716;52.268;20.968;2023-12-20T02:00:26;8.33;;;7.90;;
17199;SDS011;8716;52.268;20.968;2023-12-20T02:02:57;13.30;;;7.50;;
17199;SDS011;8716;52.268;20.968;2023-12-20T02:05:29;7.23;;;6.30;;
17199;SDS011;8716;52.268;20.968;2023-12-20T02:07:59;5.50;;;5.20;;
17199;SDS011;8716;52.268;20.968;2023-12-20T02:10:27;6.33;;;5.97;;
17199;SDS011;8716;52.268;20.968;2023-12-20T02:12:56;9.20;;;6.50;;
17199;SDS011;8716;52.268;20.968;2023-12-20T02:15:25;5.23;;;4.93;;
17199;SDS011;8716;52.268;20.968;2023-12-20T02:17:55;5.00;;;4.63;;
17199;SDS011;8716;52.268;20.968;2023-12-20T02:20:24;4.23;;;3.63;;
17199;SDS011;8716;52.268;20.968;2023-12-20T02:22:53;5.43;;;5.17;;
17199;SDS011;8716;52.268;20.968;2023-12-20T02:25:22;6.07;;;4.97;;
17199;SDS011;8716;52.268;20.968;2023-12-20T02:27:50;4.18;;;3.92;;
17199;SDS011;8716;52.268;20.968;2023-12-20T02:30:19;6.07;;;5.77;;
17199;SDS011;8716;52.268;20.968;2023-12-20T02:32:50;7.90;;;7.23;;
17199;SDS011;8716;52.268;20.968;2023-12-20T02:35:20;4.80;;;4.50;;
17199;SDS011;8716;52.268;20.968;2023-12-20T02:37:48;3.10;;;2.90;;
17199;SDS011;8716;52.268;20.968;2023-12-20T02:40:18;3.80;;;3.60;;
17199;SDS011;8716;52.268;20.968;2023-12-20T02:42:46;3.67;;;3.47;;
17199;SDS011;8716;52.268;20.968;2023-12-20T02:45:14;9.53;;;4.90;;
17199;SDS011;8716;52.268;20.968;2023-12-20T02:47:43;5.10;;;4.80;;
17199;SDS011;8716;52.268;20.968;2023-12-20T02:50:12;4.20;;;3.50;;
17199;SDS011;8716;52.268;20.968;2023-12-20T02:52:42;8.40;;;6.63;;
17199;SDS011;8716;52.268;20.968;2023-12-20T02:55:12;4.10;;;3.90;;
17199;SDS011;8716;52.268;20.968;2023-12-20T02:57:42;5.22;;;4.88;;
17199;SDS011;8716;52.268;20.968;2023-12-20T03:00:11;2.53;;;2.00;;
17199;SDS011;8716;52.268;20.968;2023-12-20T03:02:40;2.90;;;2.70;;
17199;SDS011;8716;52.268;20.968;2023-12-20T03:05:09;3.63;;;3.20;;
17199;SDS011;8716;52.268;20.968;2023-12-20T03:07:37;4.60;;;4.30;;
17199;SDS011;8716;52.268;20.968;2023-12-20T03:10:06;4.00;;;3.30;;
17199;SDS011;8716;52.268;20.968;2023-12-20T03:12:47;4.63;;;3.30;;
17199;SDS011;8716;52.268;20.968;2023-12-20T03:15:15;7.27;;;4.20;;
17199;SDS011;8716;52.268;20.968;2023-12-20T03:17:43;6.27;;;5.40;;
17199;SDS011;8716;52.268;20.968;2023-12-20T03:20:12;4.80;;;3.40;;
17199;SDS011;8716;52.268;20.968;2023-12-20T03:22:41;4.53;;;4.33;;
17199;SDS011;8716;52.268;20.968;2023-12-20T03:25:09;4.30;;;3.53;;
17199;SDS011;8716;52.268;20.968;2023-12-20T03:27:38;2.77;;;2.57;;
17199;SDS011;8716;52.268;20.968;2023-12-20T03:30:08;4.00;;;3.43;;
17199;SDS011;8716;52.268;20.968;2023-12-20T03:32:37;6.00;;;4.00;;
17199;SDS011;8716;52.268;20.968;2023-12-20T03:35:08;4.17;;;3.93;;
17199;SDS011;8716;52.268;20.968;2023-12-20T03:37:37;4.65;;;4.35;;
17199;SDS011;8716;52.268;20.968;2023-12-20T03:40:06;3.53;;;3.37;;
17199;SDS011;8716;52.268;20.968;2023-12-20T03:42:36;3.03;;;2.83;;
17199;SDS011;8716;52.268;20.968;2023-12-20T03:45:05;6.03;;;4.37;;
17199;SDS011;8716;52.268;20.968;2023-12-20T03:47:36;3.30;;;3.10;;
17199;SDS011;8716;52.268;20.968;2023-12-20T03:50:05;6.40;;;6.03;;
17199;SDS011;8716;52.268;20.968;2023-12-20T03:52:36;11.80;;;4.30;;
17199;SDS011;8716;52.268;20.968;2023-12-20T03:55:05;4.23;;;3.53;;
17199;SDS011;8716;52.268;20.968;2023-12-20T03:57:33;5.13;;;4.82;;
17199;SDS011;8716;52.268;20.968;2023-12-20T04:00:02;3.90;;;3.70;;
17199;SDS011;8716;52.268;20.968;2023-12-20T04:02:38;5.30;;;4.50;;
17199;SDS011;8716;52.268;20.968;2023-12-20T04:05:08;3.40;;;3.20;;
17199;SDS011;8716;52.268;20.968;2023-12-20T04:07:37;7.70;;;4.90;;
17199;SDS011;8716;52.268;20.968;2023-12-20T04:10:09;4.07;;;3.42;;
17199;SDS011;8716;52.268;20.968;2023-12-20T04:12:37;8.52;;;4.78;;
17199;SDS011;8716;52.268;20.968;2023-12-20T04:15:06;5.13;;;4.40;;
17199;SDS011;8716;52.268;20.968;2023-12-20T04:17:36;5.30;;;4.03;;
17199;SDS011;8716;52.268;20.968;2023-12-20T04:20:07;4.87;;;4.57;;
17199;SDS011;8716;52.268;20.968;2023-12-20T04:22:36;5.15;;;4.85;;
17199;SDS011;8716;52.268;20.968;2023-12-20T04:25:04;8.50;;;3.90;;
17199;SDS011;8716;52.268;20.968;2023-12-20T04:27:35;4.90;;;4.60;;
17199;SDS011;8716;52.268;20.968;2023-12-20T04:30:06;13.83;;;3.50;;
17199;SDS011;8716;52.268;20.968;2023-12-20T04:32:35;3.30;;;3.10;;
17199;SDS011;8716;52.268;20.968;2023-12-20T04:35:05;6.80;;;5.03;;
17199;SDS011;8716;52.268;20.968;2023-12-20T04:37:35;4.77;;;4.47;;
17199;SDS011;8716;52.268;20.968;2023-12-20T04:40:03;7.60;;;5.70;;
17199;SDS011;8716;52.268;20.968;2023-12-20T04:42:33;2.43;;;2.23;;
17199;SDS011;8716;52.268;20.968;2023-12-20T04:45:01;6.30;;;4.60;;
17199;SDS011;8716;52.268;20.968;2023-12-20T04:47:29;4.80;;;4.50;;
17199;SDS011;8716;52.268;20.968;2023-12-20T04:49:58;4.17;;;3.93;;
17199;SDS011;8716;52.268;20.968;2023-12-20T04:52:27;6.10;;;5.73;;
17199;SDS011;8716;52.268;20.968;2023-12-20T04:54:56;5.20;;;4.57;;
17199;SDS011;8716;52.268;20.968;2023-12-20T04:57:26;4.67;;;4.37;;
17199;SDS011;8716;52.268;20.968;2023-12-20T04:59:54;4.90;;;4.60;;
17199;SDS011;8716;52.268;20.968;2023-12-20T05:02:22;7.37;;;4.40;;
17199;SDS011;8716;52.268;20.968;2023-12-20T05:04:51;4.97;;;4.67;;
17199;SDS011;8716;52.268;20.968;2023-12-20T05:07:21;3.77;;;3.57;;
17199;SDS011;8716;52.268;20.968;2023-12-20T05:09:51;3.70;;;3.50;;
17199;SDS011;8716;52.268;20.968;2023-12-20T05:12:21;3.53;;;3.33;;
17199;SDS011;8716;52.268;20.968;2023-12-20T05:14:50;4.70;;;4.40;;
17199;SDS011;8716;52.268;20.968;2023-12-20T05:17:19;6.13;;;5.83;;
17199;SDS011;8716;52.268;20.968;2023-12-20T05:19:47;10.17;;;6.60;;
17199;SDS011;8716;52.268;20.968;2023-12-20T05:22:16;5.10;;;3.57;;
17199;SDS011;8716;52.268;20.968;2023-12-20T05:24:45;14.63;;;5.60;;
17199;SDS011;8716;52.268;20.968;2023-12-20T05:27:14;4.80;;;4.50;;
17199;SDS011;8716;52.268;20.968;2023-12-20T05:29:42;5.30;;;5.00;;
17199;SDS011;8716;52.268;20.968;2023-12-20T05:32:11;7.87;;;5.87;;
17199;SDS011;8716;52.268;20.968;2023-12-20T05:34:39;5.00;;;4.70;;
17199;SDS011;8716;52.268;20.968;2023-12-20T05:37:07;5.33;;;3.70;;
17199;SDS011;8716;52.268;20.968;2023-12-20T05:39:36;5.23;;;4.93;;
17199;SDS011;8716;52.268;20.968;2023-12-20T05:42:04;5.83;;;5.30;;
17199;SDS011;8716;52.268;20.968;2023-12-20T05:44:34;4.73;;;4.43;;
17199;SDS011;8716;52.268;20.968;2023-12-20T05:47:03;12.33;;;7.20;;
17199;SDS011;8716;52.268;20.968;2023-12-20T05:49:31;7.53;;;7.13;;
17199;SDS011;8716;52.268;20.968;2023-12-20T05:52:00;3.57;;;3.37;;
17199;SDS011;8716;52.268;20.968;2023-12-20T05:54:28;4.70;;;4.40;;
17199;SDS011;8716;52.268;20.968;2023-12-20T05:56:56;5.60;;;5.30;;
17199;SDS011;8716;52.268;20.968;2023-12-20T05:59:24;5.60;;;5.30;;
17199;SDS011;8716;52.268;20.968;2023-12-20T06:01:54;7.00;;;6.60;;
17199;SDS011;8716;52.268;20.968;2023-12-20T06:04:23;10.97;;;8.37;;
17199;SDS011;8716;52.268;20.968;2023-12-20T06:06:53;7.60;;;5.23;;
17199;SDS011;8716;52.268;20.968;2023-12-20T06:09:22;5.77;;;5.47;;
17199;SDS011;8716;52.268;20.968;2023-12-20T06:11:51;7.37;;;6.83;;
17199;SDS011;8716;52.268;20.968;2023-12-20T06:14:20;3.80;;;3.60;;
17199;SDS011;8716;52.268;20.968;2023-12-20T06:16:48;3.40;;;3.20;;
17199;SDS011;8716;52.268;20.968;2023-12-20T06:19:21;7.87;;;4.63;;
17199;SDS011;8716;52.268;20.968;2023-12-20T06:21:53;6.13;;;5.83;;
17199;SDS011;8716;52.268;20.968;2023-12-20T06:24:23;5.30;;;5.00;;
17199;SDS011;8716;52.268;20.968;2023-12-20T06:26:54;6.67;;;6.30;;
17199;SDS011;8716;52.268;20.968;2023-12-20T06:29:24;6.53;;;6.13;;
17199;SDS011;8716;52.268;20.968;2023-12-20T06:31:52;12.13;;;6.57;;
17199;SDS011;8716;52.268;20.968;2023-12-20T06:34:22;9.10;;;8.60;;
17199;SDS011;8716;52.268;20.968;2023-12-20T06:36:50;7.67;;;6.57;;
17199;SDS011;8716;52.268;20.968;2023-12-20T06:39:21;4.80;;;4.50;;
17199;SDS011;8716;52.268;20.968;2023-12-20T06:41:50;5.77;;;5.47;;
17199;SDS011;8716;52.268;20.968;2023-12-20T06:44:21;8.17;;;6.27;;
17199;SDS011;8716;52.268;20.968;2023-12-20T06:46:50;4.70;;;4.40;;
17199;SDS011;8716;52.268;20.968;2023-12-20T06:49:18;6.13;;;5.83;;
17199;SDS011;8716;52.268;20.968;2023-12-20T06:51:49;5.90;;;5.10;;
17199;SDS011;8716;52.268;20.968;2023-12-20T06:54:19;7.73;;;6.60;;
17199;SDS011;8716;52.268;20.968;2023-12-20T06:56:48;2.83;;;2.63;;
17199;SDS011;8716;52.268;20.968;2023-12-20T06:59:16;4.07;;;3.83;;
17199;SDS011;8716;52.268;20.968;2023-12-20T07:01:47;7.20;;;3.57;;
17199;SDS011;8716;52.268;20.968;2023-12-20T07:04:16;5.37;;;5.07;;
17199;SDS011;8716;52.268;20.968;2023-12-20T07:06:49;6.00;;;5.67;;
17199;SDS011;8716;52.268;20.968;2023-12-20T07:09:18;9.20;;;8.70;;
17199;SDS011;8716;52.268;20.968;2023-12-20T07:11:47;3.03;;;2.85;;
17199;SDS011;8716;52.268;20.968;2023-12-20T07:14:15;5.77;;;3.67;;
17199;SDS011;8716;52.268;20.968;2023-12-20T07:16:44;5.40;;;4.87;;
17199;SDS011;8716;52.268;20.968;2023-12-20T07:19:13;10.60;;;5.13;;
17199;SDS011;8716;52.268;20.968;2023-12-20T07:21:41;4.80;;;4.50;;
17199;SDS011;8716;52.268;20.968;2023-12-20T07:24:11;12.23;;;6.40;;
17199;SDS011;8716;52.268;20.968;2023-12-20T07:26:39;5.43;;;4.83;;
17199;SDS011;8716;52.268;20.968;2023-12-20T07:29:08;4.40;;;4.10;;
17199;SDS011;8716;52.268;20.968;2023-12-20T07:31:36;5.80;;;5.50;;
17199;SDS011;8716;52.268;20.968;2023-12-20T07:34:05;20.97;;;4.80;;
17199;SDS011;8716;52.268;20.968;2023-12-20T07:36:34;4.63;;;4.07;;
17199;SDS011;8716;52.268;20.968;2023-12-20T07:39:02;5.53;;;5.23;;
17199;SDS011;8716;52.268;20.968;2023-12-20T07:41:32;5.57;;;5.27;;
17199;SDS011;8716;52.268;20.968;2023-12-20T07:44:01;5.07;;;3.70;;
17199;SDS011;8716;52.268;20.968;2023-12-20T07:46:29;4.03;;;3.80;;
17199;SDS011;8716;52.268;20.968;2023-12-20T07:49:00;5.70;;;4.17;;
17199;SDS011;8716;52.268;20.968;2023-12-20T07:51:28;4.17;;;3.93;;
17199;SDS011;8716;52.268;20.968;2023-12-20T07:53:59;3.93;;;3.73;;
17199;SDS011;8716;52.268;20.968;2023-12-20T07:56:27;4.38;;;4.07;;
17199;SDS011;8716;52.268;20.968;2023-12-20T07:58:57;4.80;;;4.50;;
17199;SDS011;8716;52.268;20.968;2023-12-20T08:01:26;5.20;;;4.90;;
17199;SDS011;8716;52.268;20.968;2023-12-20T08:03:55;4.90;;;4.60;;
17199;SDS011;8716;52.268;20.968;2023-12-20T08:06:23;6.50;;;4.13;;
17199;SDS011;8716;52.268;20.968;2023-12-20T08:08:52;7.00;;;4.33;;
17199;SDS011;8716;52.268;20.968;2023-12-20T08:11:29;4.40;;;4.10;;
17199;SDS011;8716;52.268;20.968;2023-12-20T08:14:00;5.20;;;4.90;;
17199;SDS011;8716;52.268;20.968;2023-12-20T08:16:28;4.40;;;3.93;;
17199;SDS011;8716;52.268;20.968;2023-12-20T08:18:57;4.83;;;4.53;;
17199;SDS011;8716;52.268;20.968;2023-12-20T08:21:25;4.27;;;4.00;;
17199;SDS011;8716;52.268;20.968;2023-12-20T08:23:54;4.87;;;4.57;;
17199;SDS011;8716;52.268;20.968;2023-12-20T08:26:22;4.00;;;3.80;;
17199;SDS011;8716;52.268;20.968;2023-12-20T08:28:53;4.87;;;4.57;;
17199;SDS011;8716;52.268;20.968;2023-12-20T08:31:27;3.77;;;3.57;;
17199;SDS011;8716;52.268;20.968;2023-12-20T08:33:56;7.23;;;6.83;;
17199;SDS011;8716;52.268;20.968;2023-12-20T08:36:24;4.07;;;3.83;;
17199;SDS011;8716;52.268;20.968;2023-12-20T08:38:54;7.20;;;3.93;;
17199;SDS011;8716;52.268;20.968;2023-12-20T08:41:22;7.73;;;4.60;;
17199;SDS011;8716;52.268;20.968;2023-12-20T08:43:54;4.23;;;3.97;;
17199;SDS011;8716;52.268;20.968;2023-12-20T08:46:22;6.47;;;6.10;;
17199;SDS011;8716;52.268;20.968;2023-12-20T08:48:53;5.90;;;5.60;;
17199;SDS011;8716;52.268;20.968;2023-12-20T08:51:22;4.60;;;4.30;;
17199;SDS011;8716;52.268;20.968;2023-12-20T08:53:52;3.93;;;3.73;;
17199;SDS011;8716;52.268;20.968;2023-12-20T08:56:23;3.90;;;3.70;;
17199;SDS011;8716;52.268;20.968;2023-12-20T08:58:54;6.13;;;4.50;;
17199;SDS011;8716;52.268;20.968;2023-12-20T09:01:25;5.13;;;4.20;;
17199;SDS011;8716;52.268;20.968;2023-12-20T09:03:57;4.93;;;4.63;;
17199;SDS011;8716;52.268;20.968;2023-12-20T09:06:27;10.30;;;4.33;;
17199;SDS011;8716;52.268;20.968;2023-12-20T09:08:56;5.50;;;4.77;;
17199;SDS011;8716;52.268;20.968;2023-12-20T09:11:25;7.57;;;5.67;;
17199;SDS011;8716;52.268;20.968;2023-12-20T09:13:54;5.03;;;3.70;;
17199;SDS011;8716;52.268;20.968;2023-12-20T09:16:22;4.63;;;4.33;;
17199;SDS011;8716;52.268;20.968;2023-12-20T09:18:57;16.83;;;5.20;;
17199;SDS011;8716;52.268;20.968;2023-12-20T09:21:26;3.67;;;3.47;;
17199;SDS011;8716;52.268;20.968;2023-12-20T09:23:54;4.13;;;3.87;;
17199;SDS011;8716;52.268;20.968;2023-12-20T09:26:23;3.30;;;3.03;;
17199;SDS011;8716;52.268;20.968;2023-12-20T09:28:51;6.23;;;4.70;;
17199;SDS011;8716;52.268;20.968;2023-12-20T09:31:20;6.40;;;6.03;;
17199;SDS011;8716;52.268;20.968;2023-12-20T09:33:49;5.63;;;5.33;;
17199;SDS011;8716;52.268;20.968;2023-12-20T09:36:19;4.03;;;3.83;;
17199;SDS011;8716;52.268;20.968;2023-12-20T09:38:48;3.50;;;3.30;;
17199;SDS011;8716;52.268;20.968;2023-12-20T09:41:20;7.20;;;6.80;;
17199;SDS011;8716;52.268;20.968;2023-12-20T09:43:48;4.53;;;4.00;;
17199;SDS011;8716;52.268;20.968;2023-12-20T09:46:18;3.93;;;3.43;;
17199;SDS011;8716;52.268;20.968;2023-12-20T09:48:54;4.57;;;4.27;;
17199;SDS011;8716;52.268;20.968;2023-12-20T09:51:27;5.37;;;4.63;;
17199;SDS011;8716;52.268;20.968;2023-12-20T09:53:57;5.27;;;4.97;;
17199;SDS011;8716;52.268;20.968;2023-12-20T09:56:29;4.87;;;3.80;;
17199;SDS011;8716;52.268;20.968;2023-12-20T09:58:57;4.90;;;4.63;;
17199;SDS011;8716;52.268;20.968;2023-12-20T10:01:27;4.97;;;4.70;;
17199;SDS011;8716;52.268;20.968;2023-12-20T10:03:57;6.63;;;6.23;;
17199;SDS011;8716;52.268;20.968;2023-12-20T10:06:34;4.97;;;3.47;;
17199;SDS011;8716;52.268;20.968;2023-12-20T10:09:03;5.57;;;4.70;;
17199;SDS011;8716;52.268;20.968;2023-12-20T10:11:32;4.93;;;4.63;;
17199;SDS011;8716;52.268;20.968;2023-12-20T10:14:03;4.97;;;4.63;;
17199;SDS011;8716;52.268;20.968;2023-12-20T10:16:32;11.10;;;4.50;;
17199;SDS011;8716;52.268;20.968;2023-12-20T10:19:01;4.97;;;4.67;;
17199;SDS011;8716;52.268;20.968;2023-12-20T10:21:30;5.73;;;5.43;;
17199;SDS011;8716;52.268;20.968;2023-12-20T10:24:00;4.57;;;4.27;;
17199;SDS011;8716;52.268;20.968;2023-12-20T10:26:28;4.40;;;4.10;;
17199;SDS011;8716;52.268;20.968;2023-12-20T10:29:00;4.53;;;4.23;;
17199;SDS011;8716;52.268;20.968;2023-12-20T10:31:31;5.30;;;5.00;;
17199;SDS011;8716;52.268;20.968;2023-12-20T10:34:02;4.60;;;4.30;;
17199;SDS011;8716;52.268;20.968;2023-12-20T10:36:31;9.80;;;5.83;;
17199;SDS011;8716;52.268;20.968;2023-12-20T10:39:02;6.23;;;4.60;;
17199;SDS011;8716;52.268;20.968;2023-12-20T10:41:32;6.43;;;4.93;;
17199;SDS011;8716;52.268;20.968;2023-12-20T10:44:02;5.80;;;3.97;;
17199;SDS011;8716;52.268;20.968;2023-12-20T10:46:31;3.87;;;3.67;;
17199;SDS011;8716;52.268;20.968;2023-12-20T10:49:03;5.00;;;3.77;;
17199;SDS011;8716;52.268;20.968;2023-12-20T10:51:34;3.80;;;3.60;;
17199;SDS011;8716;52.268;20.968;2023-12-20T10:54:04;4.23;;;3.97;;
17199;SDS011;8716;52.268;20.968;2023-12-20T10:56:33;5.53;;;4.13;;
17199;SDS011;8716;52.268;20.968;2023-12-20T10:59:03;6.97;;;6.57;;
17199;SDS011;8716;52.268;20.968;2023-12-20T11:01:32;5.30;;;4.10;;
17199;SDS011;8716;52.268;20.968;2023-12-20T11:04:03;4.43;;;3.30;;
17199;SDS011;8716;52.268;20.968;2023-12-20T11:06:38;3.50;;;3.30;;
17199;SDS011;8716;52.268;20.968;2023-12-20T11:09:23;3.23;;;3.03;;
17199;SDS011;8716;52.268;20.968;2023-12-20T11:11:59;6.63;;;6.23;;
17199;SDS011;8716;52.268;20.968;2023-12-20T11:14:37;3.43;;;3.23;;
17199;SDS011;8716;52.268;20.968;2023-12-20T11:17:09;3.03;;;2.83;;
17199;SDS011;8716;52.268;20.968;2023-12-20T11:19:43;4.57;;;4.27;;
17199;SDS011;8716;52.268;20.968;2023-12-20T11:22:33;4.80;;;3.77;;
17199;SDS011;8716;52.268;20.968;2023-12-20T11:25:09;4.13;;;3.90;;
17199;SDS011;8716;52.268;20.968;2023-12-20T11:27:40;3.93;;;3.73;;
17199;SDS011;8716;52.268;20.968;2023-12-20T11:30:12;3.80;;;3.60;;
17199;SDS011;8716;52.268;20.968;2023-12-20T11:32:43;4.67;;;4.37;;
17199;SDS011;8716;52.268;20.968;2023-12-20T11:35:18;6.23;;;3.90;;
17199;SDS011;8716;52.268;20.968;2023-12-20T11:37:47;3.40;;;2.83;;
17199;SDS011;8716;52.268;20.968;2023-12-20T11:40:18;3.90;;;3.70;;
17199;SDS011;8716;52.268;20.968;2023-12-20T11:42:50;3.67;;;3.38;;
17199;SDS011;8716;52.268;20.968;2023-12-20T11:45:19;5.73;;;5.43;;
17199;SDS011;8716;52.268;20.968;2023-12-20T11:47:50;6.63;;;4.30;;
17199;SDS011;8716;52.268;20.968;2023-12-20T11:50:22;7.20;;;4.13;;
17199;SDS011;8716;52.268;20.968;2023-12-20T11:52:51;3.97;;;2.87;;
17199;SDS011;8716;52.268;20.968;2023-12-20T11:55:23;4.80;;;3.37;;
17199;SDS011;8716;52.268;20.968;2023-12-20T11:57:52;7.93;;;3.65;;
17199;SDS011;8716;52.268;20.968;2023-12-20T12:00:20;3.57;;;3.27;;
17199;SDS011;8716;52.268;20.968;2023-12-20T12:02:55;6.90;;;4.93;;
17199;SDS011;8716;52.268;20.968;2023-12-20T12:05:30;3.83;;;3.63;;
17199;SDS011;8716;52.268;20.968;2023-12-20T12:07:59;6.83;;;5.43;;
17199;SDS011;8716;52.268;20.968;2023-12-20T12:10:29;5.97;;;5.67;;
17199;SDS011;8716;52.268;20.968;2023-12-20T12:12:58;6.83;;;4.77;;
17199;SDS011;8716;52.268;20.968;2023-12-20T12:15:27;5.40;;;5.10;;
17199;SDS011;8716;52.268;20.968;2023-12-20T12:17:56;4.87;;;4.57;;
17199;SDS011;8716;52.268;20.968;2023-12-20T12:20:25;7.53;;;7.13;;
17199;SDS011;8716;52.268;20.968;2023-12-20T12:22:57;4.97;;;4.67;;
17199;SDS011;8716;52.268;20.968;2023-12-20T12:25:30;11.27;;;5.23;;
17199;SDS011;8716;52.268;20.968;2023-12-20T12:28:00;7.33;;;6.27;;
17199;SDS011;8716;52.268;20.968;2023-12-20T12:30:29;6.70;;;5.60;;
17199;SDS011;8716;52.268;20.968;2023-12-20T12:33:05;3.97;;;3.77;;
17199;SDS011;8716;52.268;20.968;2023-12-20T12:35:33;4.80;;;4.50;;
17199;SDS011;8716;52.268;20.968;2023-12-20T12:38:03;6.07;;;5.77;;
17199;SDS011;8716;52.268;20.968;2023-12-20T12:40:36;4.63;;;3.90;;
17199;SDS011;8716;52.268;20.968;2023-12-20T12:43:05;6.77;;;6.37;;
17199;SDS011;8716;52.268;20.968;2023-12-20T12:45:33;5.73;;;5.43;;
17199;SDS011;8716;52.268;20.968;2023-12-20T12:48:03;5.93;;;4.00;;
17199;SDS011;8716;52.268;20.968;2023-12-20T12:50:33;4.53;;;4.23;;
17199;SDS011;8716;52.268;20.968;2023-12-20T12:53:02;5.53;;;4.90;;
17199;SDS011;8716;52.268;20.968;2023-12-20T12:55:34;6.00;;;4.80;;
17199;SDS011;8716;52.268;20.968;2023-12-20T12:58:05;4.93;;;4.63;;
17199;SDS011;8716;52.268;20.968;2023-12-20T13:00:33;6.63;;;6.23;;
17199;SDS011;8716;52.268;20.968;2023-12-20T13:03:02;6.00;;;5.47;;
17199;SDS011;8716;52.268;20.968;2023-12-20T13:05:30;4.73;;;4.43;;
17199;SDS011;8716;52.268;20.968;2023-12-20T13:08:06;6.70;;;6.30;;
17199;SDS011;8716;52.268;20.968;2023-12-20T13:10:37;5.83;;;5.53;;
17199;SDS011;8716;52.268;20.968;2023-12-20T13:13:06;12.53;;;5.50;;
17199;SDS011;8716;52.268;20.968;2023-12-20T13:15:37;7.27;;;6.87;;
17199;SDS011;8716;52.268;20.968;2023-12-20T13:18:10;11.13;;;6.30;;
17199;SDS011;8716;52.268;20.968;2023-12-20T13:20:42;6.30;;;5.95;;
17199;SDS011;8716;52.268;20.968;2023-12-20T13:23:11;6.13;;;5.83;;
17199;SDS011;8716;52.268;20.968;2023-12-20T13:25:41;6.17;;;5.87;;
17199;SDS011;8716;52.268;20.968;2023-12-20T13:28:12;7.97;;;7.57;;
17199;SDS011;8716;52.268;20.968;2023-12-20T13:30:44;5.82;;;5.53;;
17199;SDS011;8716;52.268;20.968;2023-12-20T13:33:14;7.95;;;6.40;;
17199;SDS011;8716;52.268;20.968;2023-12-20T13:35:43;5.40;;;5.10;;
17199;SDS011;8716;52.268;20.968;2023-12-20T13:38:12;8.33;;;5.60;;
17199;SDS011;8716;52.268;20.968;2023-12-20T13:40:43;6.60;;;6.20;;
17199;SDS011;8716;52.268;20.968;2023-12-20T13:43:12;5.40;;;4.90;;
17199;SDS011;8716;52.268;20.968;2023-12-20T13:45:43;7.80;;;7.40;;
17199;SDS011;8716;52.268;20.968;2023-12-20T13:48:12;4.50;;;4.20;;
17199;SDS011;8716;52.268;20.968;2023-12-20T13:50:40;3.87;;;3.70;;
17199;SDS011;8716;52.268;20.968;2023-12-20T13:53:08;6.17;;;4.90;;
17199;SDS011;8716;52.268;20.968;2023-12-20T13:55:37;5.27;;;4.97;;
17199;SDS011;8716;52.268;20.968;2023-12-20T13:58:14;4.70;;;4.40;;
17199;SDS011;8716;52.268;20.968;2023-12-20T14:00:42;4.72;;;4.43;;
17199;SDS011;8716;52.268;20.968;2023-12-20T14:03:15;3.07;;;2.87;;
17199;SDS011;8716;52.268;20.968;2023-12-20T14:05:44;3.73;;;3.53;;
17199;SDS011;8716;52.268;20.968;2023-12-20T14:08:12;4.78;;;3.78;;
17199;SDS011;8716;52.268;20.968;2023-12-20T14:10:41;8.30;;;4.53;;
17199;SDS011;8716;52.268;20.968;2023-12-20T14:13:09;7.70;;;7.30;;
17199;SDS011;8716;52.268;20.968;2023-12-20T14:15:39;6.90;;;6.50;;
17199;SDS011;8716;52.268;20.968;2023-12-20T14:18:08;7.60;;;5.53;;
17199;SDS011;8716;52.268;20.968;2023-12-20T14:20:37;7.60;;;4.60;;
17199;SDS011;8716;52.268;20.968;2023-12-20T14:23:08;3.00;;;2.80;;
17199;SDS011;8716;52.268;20.968;2023-12-20T14:25:37;20.73;;;4.70;;
17199;SDS011;8716;52.268;20.968;2023-12-20T14:28:17;4.77;;;4.47;;
17199;SDS011;8716;52.268;20.968;2023-12-20T14:30:47;5.10;;;4.80;;
17199;SDS011;8716;52.268;20.968;2023-12-20T14:33:17;9.07;;;5.80;;
17199;SDS011;8716;52.268;20.968;2023-12-20T14:35:47;4.83;;;4.53;;
17199;SDS011;8716;52.268;20.968;2023-12-20T14:38:15;4.50;;;4.20;;
17199;SDS011;8716;52.268;20.968;2023-12-20T14:40:44;4.17;;;3.93;;
17199;SDS011;8716;52.268;20.968;2023-12-20T14:43:12;8.40;;;5.63;;
17199;SDS011;8716;52.268;20.968;2023-12-20T14:45:40;11.03;;;5.27;;
17199;SDS011;8716;52.268;20.968;2023-12-20T14:48:10;5.10;;;3.60;;
17199;SDS011;8716;52.268;20.968;2023-12-20T14:50:38;4.53;;;4.23;;
17199;SDS011;8716;52.268;20.968;2023-12-20T14:53:09;4.57;;;4.27;;
17199;SDS011;8716;52.268;20.968;2023-12-20T14:55:39;4.63;;;4.13;;
17199;SDS011;8716;52.268;20.968;2023-12-20T14:58:08;3.97;;;3.77;;
17199;SDS011;8716;52.268;20.968;2023-12-20T15:00:36;6.90;;;6.43;;